Latest Weather Observations for Ocean Reef

IDW60901

Issued at 2:21 pm WST Tuesday 19 January 2021 (issued every 10 minutes, with the page automatically refreshed every 10 minutes)

About weather observations | Map of Perth area stations | Latest observations for Perth area | Other Formats
Station Details ID: 009214 Name: OCEAN REEF Lat: -31.76 Lon: 115.73 Height: 10.0 m
Data from the previous 72 hours. | See also: Recent months at Ocean Reef
Date/Time
WST
Temp
°C
App
Temp
°C
Dew
Point
°C
Rel
Hum
%
Delta-T
°C
Wind Press
QNH
hPa
Press
MSL
hPa
Rain since
9am
mm
Dir  Spd
km/h
Gust
km/h
Spd
kts
Gust
kts
19/02:00pm - - - - - WSW 9 11 5 6 - - -
19/01:30pm - - - - - WSW 9 11 5 6 - - -
19/01:00pm - - - - - WSW 9 11 5 6 - - -
19/12:30pm - - - - - WSW 9 11 5 6 - - -
19/12:00pm - - - - - SW 9 11 5 6 - - -
19/11:30am - - - - - SSW 11 13 6 7 - - -
19/11:00am - - - - - SSW 11 11 6 6 - - -
19/10:30am - - - - - SSW 11 13 6 7 - - -
19/10:00am - - - - - SSW 11 13 6 7 - - -
19/09:30am - - - - - SSW 11 13 6 7 - - -
19/09:00am - - - - - SSW 15 19 8 10 - - -
19/08:30am - - - - - SSW 15 19 8 10 - - -
19/08:00am - - - - - SSW 9 11 5 6 - - -
19/07:30am - - - - - CALM 0 0 0 0 - - -
19/07:00am - - - - - NW 4 7 2 4 - - -
19/06:30am - - - - - CALM 0 0 0 0 - - -
19/06:00am - - - - - CALM 0 0 0 0 - - -
19/05:30am - - - - - NW 7 9 4 5 - - -
19/05:00am - - - - - NNW 9 13 5 7 - - -
19/04:30am - - - - - NE 9 15 5 8 - - -
19/04:00am - - - - - ENE 17 28 9 15 - - -
19/03:30am - - - - - ENE 17 22 9 12 - - -
19/03:00am - - - - - ENE 17 26 9 14 - - -
19/02:30am - - - - - ENE 17 20 9 11 - - -
19/02:00am - - - - - ENE 17 24 9 13 - - -
19/01:30am - - - - - ENE 17 24 9 13 - - -
19/01:00am - - - - - ENE 22 30 12 16 - - -
19/12:30am - - - - - ENE 24 35 13 19 - - -
19/12:00am - - - - - ENE 24 35 13 19 - - -
 
Date/Time
WST
Temp
°C
App
Temp
°C
Dew
Point
°C
Rel
Hum
%
Delta-T
°C
Wind Press
QNH
hPa
Press
MSL
hPa
Rain since
9am
mm
Dir  Spd
km/h
Gust
km/h
Spd
kts
Gust
kts
18/11:30pm - - - - - NE 24 32 13 17 - - -
18/11:00pm - - - - - ENE 24 33 13 18 - - -
18/10:30pm - - - - - ENE 24 35 13 19 - - -
18/10:00pm - - - - - ENE 24 35 13 19 - - -
18/09:30pm - - - - - ENE 22 32 12 17 - - -
18/09:00pm - - - - - ENE 19 28 10 15 - - -
18/08:30pm - - - - - ENE 24 32 13 17 - - -
18/08:00pm - - - - - ENE 24 32 13 17 - - -
18/07:30pm - - - - - ENE 20 32 11 17 - - -
18/07:00pm - - - - - NE 24 37 13 20 - - -
18/06:30pm - - - - - NE 28 41 15 22 - - -
18/06:15pm - - - - - NE 28 48 15 26 - - -
18/06:00pm - - - - - NE 24 35 13 19 - - -
18/05:30pm - - - - - NE 24 35 13 19 - - -
18/05:00pm - - - - - NNE 22 35 12 19 - - -
18/04:30pm - - - - - NNE 26 37 14 20 - - -
18/04:00pm - - - - - NE 26 35 14 19 - - -
18/03:30pm - - - - - NNE 22 32 12 17 - - -
18/03:00pm - - - - - NE 22 35 12 19 - - -
18/02:30pm - - - - - NE 24 33 13 18 - - -
18/02:00pm - - - - - ENE 22 32 12 17 - - -
18/01:30pm - - - - - ENE 28 41 15 22 - - -
18/01:04pm - - - - - NE 28 46 15 25 - - -
18/01:00pm - - - - - NE 28 39 15 21 - - -
18/12:30pm - - - - - NE 28 39 15 21 - - -
18/12:00pm - - - - - NE 24 44 13 24 - - -
18/11:30am - - - - - NE 24 39 13 21 - - -
18/11:00am - - - - - NE 19 35 10 19 - - -
18/10:30am - - - - - NE 26 37 14 20 - - -
18/10:00am - - - - - NE 32 46 17 25 - - -
18/09:30am - - - - - NE 28 46 15 25 - - -
18/09:28am - - - - - NE 28 46 15 25 - - -
18/09:00am - - - - - NE 28 43 15 23 - - -
18/08:38am - - - - - NE 32 50 17 27 - - -
18/08:30am - - - - - NE 37 50 20 27 - - -
18/08:08am - - - - - ENE 30 48 16 26 - - -
18/08:00am - - - - - NE 30 43 16 23 - - -
18/07:30am - - - - - ENE 30 41 16 22 - - -
18/07:00am - - - - - ENE 30 41 16 22 - - -
18/06:30am - - - - - ENE 26 39 14 21 - - -
18/06:00am - - - - - NE 20 35 11 19 - - -
18/05:30am - - - - - NE 15 30 8 16 - - -
18/05:00am - - - - - ENE 17 22 9 12 - - -
18/04:30am - - - - - NE 11 19 6 10 - - -
18/04:00am - - - - - ENE 19 30 10 16 - - -
18/03:30am - - - - - ENE 19 28 10 15 - - -
18/03:00am - - - - - ENE 19 30 10 16 - - -
18/02:30am - - - - - ENE 20 37 11 20 - - -
18/02:00am - - - - - ENE 24 35 13 19 - - -
18/01:30am - - - - - ENE 19 35 10 19 - - -
18/01:00am - - - - - ENE 19 28 10 15 - - -
18/12:30am - - - - - E 15 26 8 14 - - -
18/12:00am - - - - - E 17 26 9 14 - - -
 
Date/Time
WST
Temp
°C
App
Temp
°C
Dew
Point
°C
Rel
Hum
%
Delta-T
°C
Wind Press
QNH
hPa
Press
MSL
hPa
Rain since
9am
mm
Dir  Spd
km/h
Gust
km/h
Spd
kts
Gust
kts
17/11:30pm - - - - - E 17 26 9 14 - - -
17/11:00pm - - - - - E 17 28 9 15 - - -
17/10:30pm - - - - - E 15 20 8 11 - - -
17/10:00pm - - - - - E 17 26 9 14 - - -
17/09:30pm - - - - - ESE 17 26 9 14 - - -
17/09:00pm - - - - - ESE 17 22 9 12 - - -
17/08:30pm - - - - - ESE 15 20 8 11 - - -
17/08:00pm - - - - - ESE 17 22 9 12 - - -
17/07:30pm - - - - - ESE 15 28 8 15 - - -
17/07:00pm - - - - - ESE 17 26 9 14 - - -
17/06:30pm - - - - - ESE 17 26 9 14 - - -
17/06:00pm - - - - - E 19 30 10 16 - - -
17/05:30pm - - - - - ESE 20 32 11 17 - - -
17/05:00pm - - - - - E 22 33 12 18 - - -
17/04:30pm - - - - - E 19 26 10 14 - - -
17/04:00pm - - - - - E 22 35 12 19 - - -
17/03:30pm - - - - - E 24 35 13 19 - - -
17/03:00pm - - - - - E 20 35 11 19 - - -
17/02:30pm - - - - - E 20 32 11 17 - - -
17/02:00pm - - - - - ENE 24 41 13 22 - - -
17/01:30pm - - - - - E 24 37 13 20 - - -
17/01:00pm - - - - - ENE 22 37 12 20 - - -
17/12:30pm - - - - - ENE 26 37 14 20 - - -
17/12:00pm - - - - - E 30 44 16 24 - - -
17/11:30am - - - - - E 28 44 15 24 - - -
17/11:01am - - - - - ENE 28 46 15 25 - - -
17/11:00am - - - - - ENE 28 39 15 21 - - -
17/10:30am - - - - - ENE 33 48 18 26 - - -
17/10:00am - - - - - ENE 33 54 18 29 - - -
17/09:36am - - - - - ENE 30 48 16 26 - - -
17/09:30am - - - - - ENE 32 48 17 26 - - -
17/09:02am - - - - - ENE 33 54 18 29 - - -
17/09:00am - - - - - ENE 32 48 17 26 - - -
17/08:30am - - - - - ENE 35 54 19 29 - - -
17/08:00am - - - - - ENE 32 54 17 29 - - -
17/07:38am - - - - - ENE 30 50 16 27 - - -
17/07:30am - - - - - ENE 32 41 17 22 - - -
17/07:00am - - - - - E 33 50 18 27 - - -
17/06:30am - - - - - ENE 32 50 17 27 - - -
17/06:07am - - - - - E 33 52 18 28 - - -
17/06:00am - - - - - E 33 50 18 27 - - -
17/05:52am - - - - - ENE 32 50 17 27 - - -
17/05:30am - - - - - ENE 32 48 17 26 - - -
17/05:00am - - - - - E 33 50 18 27 - - -
17/04:40am - - - - - E 28 48 15 26 - - -
17/04:30am - - - - - E 26 43 14 23 - - -
17/04:00am - - - - - E 28 44 15 24 - - -
17/03:30am - - - - - E 26 35 14 19 - - -
17/03:00am - - - - - E 30 37 16 20 - - -
17/02:30am - - - - - E 28 35 15 19 - - -
17/02:00am - - - - - E 30 37 16 20 - - -
17/01:39am - - - - - E 30 48 16 26 - - -
17/01:30am - - - - - E 32 41 17 22 - - -
17/01:15am - - - - - E 30 52 16 28 - - -
17/01:00am - - - - - ESE 32 48 17 26 - - -
17/12:30am - - - - - ESE 33 52 18 28 - - -
17/12:00am - - - - - ESE 26 43 14 23 - - -
 
Date/Time
WST
Temp
°C
App
Temp
°C
Dew
Point
°C
Rel
Hum
%
Delta-T
°C
Wind Press
QNH
hPa
Press
MSL
hPa
Rain since
9am
mm
Dir  Spd
km/h
Gust
km/h
Spd
kts
Gust
kts
16/11:30pm - - - - - E 28 41 15 22 - - -
16/11:11pm - - - - - E 30 48 16 26 - - -
16/11:00pm - - - - - E 28 41 15 22 - - -
16/10:30pm - - - - - E 28 39 15 21 - - -
16/10:00pm - - - - - ESE 28 43 15 23 - - -
16/09:30pm - - - - - ESE 26 37 14 20 - - -
16/09:00pm - - - - - ESE 24 37 13 20 - - -
16/08:30pm - - - - - ESE 24 41 13 22 - - -
16/08:00pm - - - - - ESE 24 35 13 19 - - -
16/07:30pm - - - - - ESE 24 37 13 20 - - -
16/07:00pm - - - - - ESE 26 39 14 21 - - -
16/06:30pm - - - - - ESE 28 48 15 26 - - -
16/06:25pm - - - - - ESE 28 48 15 26 - - -
16/06:00pm - - - - - E 26 43 14 23 - - -
16/05:30pm - - - - - E 24 37 13 20 - - -
16/05:00pm - - - - - E 26 46 14 25 - - -
16/04:30pm - - - - - E 26 37 14 20 - - -
16/04:05pm - - - - - E 28 46 15 25 - - -
16/04:00pm - - - - - E 30 46 16 25 - - -
16/03:54pm - - - - - ENE 28 46 15 25 - - -
16/03:30pm - - - - - E 24 39 13 21 - - -
16/03:02pm - - - - - E 28 48 15 26 - - -
16/03:00pm - - - - - E 28 37 15 20 - - -
16/02:43pm - - - - - ENE 28 50 15 27 - - -
16/02:30pm - - - - - ENE 26 41 14 22 - - -

Latest Capital City Observations: Canberra | Sydney | Melbourne | Brisbane | Adelaide | Perth | Hobart | Darwin

Other formats

Comma delimited format used in spreadsheet applications
http://www.bom.gov.au/fwo/IDW60901/IDW60901.94607.axf

JavaScript Object Notation format (JSON) in row-major order
http://www.bom.gov.au/fwo/IDW60901/IDW60901.94607.json

Data quality

Most of these data are generated automatically and are frequently updated. Quality checks on data are not normally performed. It is possible for incorrect values to appear. Refer to information at About Latest Weather Observations and please check the disclaimer before using these data.